createdAt,value
2022-12-13T00:01:22.843Z,25.17
2022-12-13T00:03:52.278Z,27.63
2022-12-13T00:06:19.057Z,23.38
2022-12-13T00:08:45.932Z,22.80
2022-12-13T00:11:14.282Z,21.85
2022-12-13T00:13:43.117Z,24.83
2022-12-13T00:16:16.076Z,22.27
2022-12-13T00:18:43.618Z,21.67
2022-12-13T00:21:15.200Z,21.05
2022-12-13T00:23:42.133Z,22.73
2022-12-13T00:26:18.835Z,19.15
2022-12-13T00:28:49.088Z,19.88
2022-12-13T00:31:53.544Z,15.05
2022-12-13T00:34:04.292Z,14.50
2022-12-13T00:36:31.066Z,16.85
2022-12-13T00:39:00.891Z,22.73
2022-12-13T00:41:30.783Z,18.42
2022-12-13T00:43:58.533Z,18.98
2022-12-13T00:46:26.537Z,18.83
2022-12-13T00:48:56.733Z,19.23
2022-12-13T00:51:24.468Z,20.95
2022-12-13T00:53:51.405Z,21.08
2022-12-13T00:56:21.691Z,18.15
2022-12-13T00:58:52.294Z,20.45
2022-12-13T01:01:25.234Z,19.08
2022-12-13T01:03:57.819Z,26.33
2022-12-13T01:06:37.690Z,19.02
2022-12-13T01:09:06.495Z,18.20
2022-12-13T01:11:33.457Z,18.77
2022-12-13T01:14:00.258Z,23.38
2022-12-13T01:16:27.117Z,23.20
2022-12-13T01:18:54.011Z,17.58
2022-12-13T01:21:22.268Z,17.98
2022-12-13T01:23:49.727Z,16.77
2022-12-13T01:26:19.677Z,19.67
2022-12-13T01:28:47.284Z,18.42
2022-12-13T01:31:16.525Z,18.15
2022-12-13T01:33:43.496Z,18.90
2022-12-13T01:36:13.778Z,14.75
2022-12-13T01:38:40.663Z,17.45
2022-12-13T01:41:16.697Z,17.05
2022-12-13T01:43:55.049Z,19.92
2022-12-13T01:49:04.065Z,14.73
2022-12-13T01:51:51.155Z,17.10
2022-12-13T01:54:22.841Z,20.08
2022-12-13T01:56:53.423Z,18.02
2022-12-13T01:59:28.413Z,17.60
2022-12-13T02:02:01.081Z,17.70
2022-12-13T02:04:43.828Z,22.33
2022-12-13T02:07:23.024Z,21.95
2022-12-13T02:09:56.585Z,17.60
2022-12-13T02:12:30.363Z,18.48
2022-12-13T02:15:01.126Z,16.08
2022-12-13T02:17:49.575Z,18.63
2022-12-13T02:20:47.235Z,20.15
2022-12-13T02:23:48.487Z,22.13
2022-12-13T02:26:54.650Z,19.15
2022-12-13T02:29:30.405Z,25.17
2022-12-13T02:32:17.801Z,21.02
2022-12-13T02:35:07.368Z,21.60
2022-12-13T02:38:07.310Z,28.55
2022-12-13T02:40:48.350Z,32.70
2022-12-13T02:43:33.680Z,31.50
2022-12-13T02:46:03.445Z,24.38
2022-12-13T02:48:34.333Z,27.55
2022-12-13T02:51:05.181Z,28.92
2022-12-13T02:53:34.005Z,28.30
2022-12-13T02:56:00.984Z,30.90
2022-12-13T02:58:35.794Z,31.33
2022-12-13T03:01:29.097Z,26.85
2022-12-13T03:04:15.242Z,32.75
2022-12-13T03:07:12.610Z,32.88
2022-12-13T03:09:55.473Z,33.77
2022-12-13T03:13:09.403Z,27.33
2022-12-13T03:15:47.522Z,28.55
2022-12-13T03:18:22.698Z,34.05
2022-12-13T03:20:52.744Z,27.20
2022-12-13T03:23:20.918Z,31.77
2022-12-13T03:25:52.071Z,32.90
2022-12-13T03:28:19.059Z,32.10
2022-12-13T03:30:46.001Z,30.08
2022-12-13T03:33:12.756Z,30.27
2022-12-13T03:35:44.898Z,35.47
2022-12-13T03:38:22.503Z,29.95
2022-12-13T03:40:57.532Z,31.65
2022-12-13T03:43:24.713Z,27.27
2022-12-13T03:45:52.629Z,29.80
2022-12-13T03:48:22.642Z,30.15
2022-12-13T03:50:50.991Z,36.42
2022-12-13T03:53:23.231Z,32.15
2022-12-13T03:56:02.636Z,28.17
2022-12-13T03:58:35.626Z,35.58
2022-12-13T04:01:14.109Z,28.75
2022-12-13T04:03:42.572Z,34.42
2022-12-13T04:06:10.840Z,32.22
2022-12-13T04:08:39.145Z,31.30
2022-12-13T04:11:25.872Z,29.10
2022-12-13T04:13:55.891Z,30.90
2022-12-13T04:16:23.653Z,34.13
2022-12-13T04:18:50.627Z,30.95
2022-12-13T04:21:17.555Z,33.33
2022-12-13T04:23:44.383Z,36.53
2022-12-13T04:26:11.192Z,33.58
2022-12-13T04:28:37.954Z,35.67
2022-12-13T04:31:04.808Z,34.75
2022-12-13T04:33:32.758Z,28.25
2022-12-13T04:35:59.813Z,29.38
2022-12-13T04:38:26.639Z,27.05
2022-12-13T04:40:53.500Z,27.90
2022-12-13T04:43:20.251Z,38.75
2022-12-13T04:45:47.076Z,41.25
2022-12-13T04:48:13.886Z,36.33
2022-12-13T04:51:00.983Z,40.00
2022-12-13T04:53:30.011Z,41.97
2022-12-13T04:55:56.880Z,35.00
2022-12-13T04:58:23.691Z,36.45
2022-12-13T05:00:50.439Z,36.53
2022-12-13T05:03:17.258Z,43.00
2022-12-13T05:05:44.063Z,31.38
2022-12-13T05:08:10.839Z,40.58
2022-12-13T05:10:38.270Z,33.45
2022-12-13T05:13:06.220Z,34.35
2022-12-13T05:15:33.866Z,31.70
2022-12-13T05:18:09.809Z,39.25
2022-12-13T05:20:40.478Z,37.50
2022-12-13T05:23:07.716Z,44.88
2022-12-13T05:25:36.909Z,39.17
2022-12-13T05:28:08.790Z,40.83
2022-12-13T05:33:18.771Z,40.88
2022-12-13T05:35:46.717Z,39.90
2022-12-13T05:38:13.505Z,44.38
2022-12-13T05:40:40.779Z,39.10
2022-12-13T05:43:21.287Z,44.72
2022-12-13T05:45:49.151Z,42.05
2022-12-13T05:48:16.313Z,39.17
2022-12-13T05:50:51.751Z,38.00
2022-12-13T05:53:37.183Z,41.30
2022-12-13T05:56:04.176Z,42.03
2022-12-13T05:58:35.855Z,39.38
2022-12-13T06:01:08.406Z,39.55
2022-12-13T06:03:35.828Z,42.20
2022-12-13T06:06:03.769Z,38.67
2022-12-13T06:08:31.057Z,48.70
2022-12-13T06:11:11.379Z,36.42
2022-12-13T06:13:44.000Z,33.78
2022-12-13T06:16:22.822Z,37.72
2022-12-13T06:18:57.457Z,38.10
2022-12-13T06:21:26.177Z,42.53
2022-12-13T06:23:52.880Z,38.67
2022-12-13T06:26:19.822Z,47.20
2022-12-13T06:28:46.605Z,46.10
2022-12-13T06:31:13.506Z,43.72
2022-12-13T06:33:40.250Z,48.63
2022-12-13T06:36:07.772Z,45.25
2022-12-13T06:38:34.454Z,44.38
2022-12-13T06:41:15.111Z,50.85
2022-12-13T06:43:43.725Z,41.03
2022-12-13T06:46:10.829Z,46.15
2022-12-13T06:48:37.782Z,53.72
2022-12-13T06:51:05.530Z,41.78
2022-12-13T06:53:33.422Z,47.42
2022-12-13T06:56:08.385Z,47.35
2022-12-13T06:58:36.100Z,45.63
2022-12-13T07:01:14.670Z,48.22
2022-12-13T07:03:42.791Z,46.63
2022-12-13T07:06:28.031Z,44.70
2022-12-13T07:08:57.799Z,50.92
2022-12-13T07:11:27.223Z,50.00
2022-12-13T07:13:55.129Z,46.78
2022-12-13T07:16:23.103Z,49.83
2022-12-13T07:19:01.719Z,47.22
2022-12-13T07:21:29.859Z,41.75
2022-12-13T07:23:57.079Z,51.83
2022-12-13T07:26:24.838Z,43.25
2022-12-13T07:28:55.339Z,48.08
2022-12-13T07:31:24.151Z,45.75
2022-12-13T07:33:51.340Z,48.50
2022-12-13T07:36:20.787Z,46.20
2022-12-13T07:38:52.919Z,47.55
2022-12-13T07:41:23.542Z,54.85
2022-12-13T07:43:55.161Z,53.75
2022-12-13T07:46:31.937Z,49.70
2022-12-13T07:51:28.885Z,47.33
2022-12-13T07:53:55.618Z,50.28
2022-12-13T07:56:22.468Z,47.25
2022-12-13T07:58:49.180Z,52.80
2022-12-13T08:01:15.921Z,53.72
2022-12-13T08:03:42.929Z,51.13
2022-12-13T08:06:12.238Z,54.05
2022-12-13T08:08:39.815Z,54.30
2022-12-13T08:11:09.514Z,47.83
2022-12-13T08:13:36.786Z,45.75
2022-12-13T08:16:26.350Z,47.13
2022-12-13T08:19:03.061Z,50.13
2022-12-13T08:21:56.812Z,50.20
2022-12-13T08:24:26.850Z,49.83
2022-12-13T08:26:54.866Z,51.13
2022-12-13T08:29:23.266Z,47.05
2022-12-13T08:32:07.928Z,50.15
2022-12-13T08:34:35.159Z,55.03
2022-12-13T08:37:03.909Z,48.10
2022-12-13T08:39:37.236Z,46.00
2022-12-13T08:42:19.434Z,44.80
2022-12-13T08:44:52.341Z,44.33
2022-12-13T08:47:26.028Z,54.20
2022-12-13T08:50:01.900Z,45.25
2022-12-13T08:54:58.484Z,41.85
2022-12-13T08:57:25.293Z,45.03
2022-12-13T08:59:52.047Z,43.80
2022-12-13T09:02:19.045Z,41.35
2022-12-13T09:04:45.990Z,43.83
2022-12-13T09:07:13.374Z,39.92
2022-12-13T09:09:40.129Z,38.97
2022-12-13T09:12:10.934Z,35.65
2022-12-13T09:15:01.159Z,36.13
2022-12-13T09:17:36.396Z,35.13
2022-12-13T09:20:10.027Z,33.28
2022-12-13T09:22:51.098Z,34.83
2022-12-13T09:25:24.165Z,34.10
2022-12-13T09:27:51.504Z,29.77
2022-12-13T09:30:18.224Z,33.50
2022-12-13T09:32:49.772Z,30.35
2022-12-13T09:35:17.160Z,34.60
2022-12-13T09:37:46.055Z,33.83
2022-12-13T09:40:26.549Z,31.35
2022-12-13T09:43:13.718Z,35.08
2022-12-13T09:45:48.037Z,34.42
2022-12-13T09:48:23.293Z,31.58
2022-12-13T09:50:58.314Z,32.38
2022-12-13T09:53:39.330Z,33.00
2022-12-13T09:56:11.364Z,33.22
2022-12-13T09:58:38.278Z,34.88
2022-12-13T10:01:06.181Z,31.63
2022-12-13T10:03:33.064Z,39.90
2022-12-13T10:06:23.347Z,43.35
2022-12-13T10:08:57.746Z,33.40
2022-12-13T10:11:32.341Z,39.05
2022-12-13T10:14:26.372Z,33.55
2022-12-13T10:16:57.803Z,32.10
2022-12-13T10:19:36.506Z,32.78
2022-12-13T10:22:06.085Z,35.78
2022-12-13T10:24:56.052Z,39.17
2022-12-13T10:27:33.273Z,34.55
2022-12-13T10:32:42.753Z,31.60
2022-12-13T10:35:36.839Z,30.80
2022-12-13T10:38:32.137Z,30.52
2022-12-13T10:41:01.122Z,31.15
2022-12-13T10:43:30.430Z,37.90
2022-12-13T10:46:00.508Z,36.63
2022-12-13T10:48:39.120Z,35.20
2022-12-13T10:51:21.433Z,34.75
2022-12-13T10:53:58.616Z,39.17
2022-12-13T10:59:17.182Z,33.80
2022-12-13T11:01:44.507Z,40.47
2022-12-13T11:04:32.771Z,33.50
2022-12-13T11:07:25.521Z,37.83
2022-12-13T11:09:53.080Z,44.38
2022-12-13T11:12:23.722Z,35.88
2022-12-13T11:14:57.171Z,30.80
2022-12-13T11:17:27.010Z,39.85
2022-12-13T11:20:05.038Z,36.40
2022-12-13T11:22:40.225Z,33.65
2022-12-13T11:25:27.766Z,36.13
2022-12-13T11:28:26.863Z,37.35
2022-12-13T11:31:19.110Z,38.72
2022-12-13T11:34:20.115Z,39.05
2022-12-13T11:37:01.167Z,36.85
2022-12-13T11:39:27.903Z,36.70
2022-12-13T11:41:58.338Z,40.05
2022-12-13T11:44:43.079Z,40.10
2022-12-13T11:47:25.171Z,34.38
2022-12-13T11:49:53.240Z,38.65
2022-12-13T11:52:30.730Z,35.35
2022-12-13T11:55:04.877Z,35.95
2022-12-13T11:57:54.881Z,35.92
2022-12-13T12:00:39.669Z,34.80
2022-12-13T12:03:20.135Z,29.55
2022-12-13T12:06:02.564Z,38.25
2022-12-13T12:08:50.376Z,33.17
2022-12-13T12:11:28.035Z,31.73
2022-12-13T12:14:08.124Z,38.35
2022-12-13T12:16:42.722Z,37.08
2022-12-13T12:19:19.573Z,30.02
2022-12-13T12:22:16.851Z,38.42
2022-12-13T12:25:11.180Z,35.17
2022-12-13T12:27:59.634Z,36.15
2022-12-13T12:30:36.534Z,34.10
2022-12-13T12:33:32.646Z,30.10
2022-12-13T12:36:18.208Z,36.40
2022-12-13T12:39:03.061Z,33.67
2022-12-13T12:41:45.509Z,43.80
2022-12-13T12:44:36.664Z,34.60
2022-12-13T12:47:36.194Z,32.42
2022-12-13T12:50:11.700Z,33.38
2022-12-13T12:53:16.187Z,34.63
2022-12-13T12:56:24.657Z,28.02
2022-12-13T12:59:15.541Z,28.38
2022-12-13T13:02:12.518Z,29.38
2022-12-13T13:04:46.254Z,33.10
2022-12-13T13:07:27.549Z,36.83
2022-12-13T13:09:55.610Z,31.15
2022-12-13T13:12:29.696Z,30.38
2022-12-13T13:14:57.955Z,25.00
2022-12-13T13:17:24.652Z,24.80
2022-12-13T13:20:01.565Z,28.95
2022-12-13T13:22:43.453Z,29.38
2022-12-13T13:25:27.712Z,27.30
2022-12-13T13:28:15.636Z,27.98
2022-12-13T13:31:14.739Z,26.90
2022-12-13T13:33:48.819Z,26.67
2022-12-13T13:36:41.214Z,25.63
2022-12-13T13:39:27.030Z,26.77
2022-12-13T13:42:14.151Z,24.10
2022-12-13T13:44:50.478Z,25.15
2022-12-13T13:47:39.212Z,38.67
2022-12-13T13:50:21.342Z,25.17
2022-12-13T13:53:34.913Z,26.73
2022-12-13T13:56:28.442Z,25.92
2022-12-13T13:59:33.115Z,22.23
2022-12-13T14:02:28.831Z,40.08
2022-12-13T14:05:53.276Z,26.30
2022-12-13T14:08:41.532Z,24.88
2022-12-13T14:11:36.903Z,31.65
2022-12-13T14:14:22.861Z,34.80
2022-12-13T14:17:17.426Z,27.73
2022-12-13T14:20:00.829Z,27.30
2022-12-13T14:22:44.280Z,28.48
2022-12-13T14:25:52.193Z,26.83
2022-12-13T14:28:52.966Z,23.80
2022-12-13T14:31:33.409Z,24.98
2022-12-13T14:34:02.942Z,28.02
2022-12-13T14:36:34.974Z,31.63
2022-12-13T14:39:05.132Z,27.38
2022-12-13T14:41:33.298Z,29.23
2022-12-13T14:44:32.144Z,39.53
2022-12-13T14:47:03.297Z,35.63
2022-12-13T14:49:35.315Z,31.25
2022-12-13T14:52:26.832Z,39.17
2022-12-13T14:54:58.029Z,38.17
2022-12-13T14:57:28.320Z,31.77
2022-12-13T14:59:57.859Z,30.08
2022-12-13T15:02:33.428Z,31.83
2022-12-13T15:05:05.563Z,31.65
2022-12-13T15:07:37.524Z,27.58
2022-12-13T15:10:33.727Z,25.38
2022-12-13T15:13:00.677Z,28.83
2022-12-13T15:15:32.828Z,30.52
2022-12-13T15:18:23.807Z,26.15
2022-12-13T15:20:55.151Z,32.05
2022-12-13T15:23:48.703Z,26.85
2022-12-13T15:26:28.683Z,28.23
2022-12-13T15:31:28.404Z,32.10
2022-12-13T15:34:28.930Z,25.58
2022-12-13T15:37:03.069Z,27.08
2022-12-13T15:39:33.235Z,29.88
2022-12-13T15:42:00.284Z,32.88
2022-12-13T15:44:33.608Z,28.50
2022-12-13T15:47:05.233Z,29.38
2022-12-13T15:49:38.793Z,25.17
2022-12-13T15:52:13.524Z,26.63
2022-12-13T15:54:40.802Z,31.75
2022-12-13T15:57:17.441Z,25.63
2022-12-13T15:59:44.905Z,23.40
2022-12-13T16:02:25.358Z,39.33
2022-12-13T16:04:52.427Z,31.33
2022-12-13T16:07:40.291Z,37.08
2022-12-13T16:10:08.660Z,27.48
2022-12-13T16:13:01.900Z,30.90
2022-12-13T16:15:49.871Z,29.58
2022-12-13T16:18:26.347Z,29.35
2022-12-13T16:20:54.875Z,29.88
2022-12-13T16:23:26.714Z,31.02
2022-12-13T16:25:54.131Z,31.25
2022-12-13T16:28:26.260Z,25.80
2022-12-13T16:30:53.262Z,25.92
2022-12-13T16:33:26.833Z,29.50
2022-12-13T16:35:55.933Z,27.77
2022-12-13T16:38:26.463Z,28.80
2022-12-13T16:40:55.538Z,27.17
2022-12-13T16:43:33.046Z,31.50
2022-12-13T16:47:11.403Z,30.10
2022-12-13T16:48:51.102Z,34.47
2022-12-13T16:51:18.252Z,28.85
2022-12-13T16:53:45.320Z,31.20
2022-12-13T16:56:16.104Z,27.60
2022-12-13T16:58:49.625Z,32.25
2022-12-13T17:01:20.041Z,30.02
2022-12-13T17:03:47.474Z,31.27
2022-12-13T17:06:19.426Z,34.72
2022-12-13T17:08:46.256Z,28.55
2022-12-13T17:11:17.784Z,34.50
2022-12-13T17:13:47.379Z,29.05
2022-12-13T17:16:14.365Z,35.35
2022-12-13T17:18:41.194Z,32.25
2022-12-13T17:21:09.598Z,34.88
2022-12-13T17:23:37.083Z,36.40
2022-12-13T17:26:08.625Z,38.63
2022-12-13T17:28:35.815Z,34.55
2022-12-13T17:31:14.786Z,38.35
2022-12-13T17:33:43.103Z,33.80
2022-12-13T17:36:11.970Z,35.83
2022-12-13T17:38:43.909Z,30.65
2022-12-13T17:41:10.823Z,26.95
2022-12-13T17:43:38.014Z,33.30
2022-12-13T17:46:14.471Z,30.58
2022-12-13T17:48:42.428Z,33.47
2022-12-13T17:51:10.355Z,35.17
2022-12-13T17:53:39.237Z,34.50
2022-12-13T17:56:07.940Z,36.20
2022-12-13T17:58:35.379Z,35.42
2022-12-13T18:01:16.734Z,39.30
2022-12-13T18:03:43.630Z,37.55
2022-12-13T18:06:10.771Z,32.00
2022-12-13T18:08:38.905Z,29.30
2022-12-13T18:13:54.745Z,33.65
2022-12-13T18:16:23.427Z,34.50
2022-12-13T18:18:55.313Z,37.25
2022-12-13T18:21:24.074Z,31.50
2022-12-13T18:23:55.061Z,33.20
2022-12-13T18:26:24.500Z,38.30
2022-12-13T18:28:52.157Z,42.58
2022-12-13T18:31:22.329Z,37.13
2022-12-13T18:33:50.447Z,34.20
2022-12-13T18:36:18.866Z,41.08
2022-12-13T18:38:45.793Z,33.97
2022-12-13T18:41:20.170Z,35.08
2022-12-13T18:43:47.716Z,43.20
2022-12-13T18:46:15.926Z,34.35
2022-12-13T18:48:43.027Z,39.38
2022-12-13T18:51:10.755Z,39.97
2022-12-13T18:53:38.772Z,33.60
2022-12-13T18:56:11.583Z,31.23
2022-12-13T18:58:41.614Z,32.90
2022-12-13T19:01:10.798Z,36.70
2022-12-13T19:03:38.480Z,37.47
2022-12-13T19:06:06.563Z,35.17
2022-12-13T19:08:33.946Z,38.83
2022-12-13T19:11:01.917Z,38.20
2022-12-13T19:13:29.965Z,36.35
2022-12-13T19:16:03.279Z,45.35
2022-12-13T19:18:30.072Z,34.53
2022-12-13T19:20:56.856Z,33.50
2022-12-13T19:23:23.891Z,37.10
2022-12-13T19:25:51.224Z,33.90
2022-12-13T19:28:19.372Z,38.47
2022-12-13T19:30:47.578Z,40.50
2022-12-13T19:33:15.225Z,36.97
2022-12-13T19:35:43.046Z,33.83
2022-12-13T19:38:10.311Z,35.00
2022-12-13T19:40:42.261Z,37.10
2022-12-13T19:43:10.062Z,41.05
2022-12-13T19:45:36.764Z,39.45
2022-12-13T19:48:05.128Z,38.15
2022-12-13T19:50:31.844Z,43.05
2022-12-13T19:52:58.648Z,37.90
2022-12-13T19:55:25.452Z,36.08
2022-12-13T19:57:52.698Z,42.25
2022-12-13T20:00:19.411Z,40.40
2022-12-13T20:02:46.183Z,36.83
2022-12-13T20:05:12.936Z,38.60
2022-12-13T20:07:39.764Z,41.38
2022-12-13T20:10:07.211Z,36.92
2022-12-13T20:12:40.504Z,47.35
2022-12-13T20:15:08.826Z,38.88
2022-12-13T20:17:36.267Z,36.90
2022-12-13T20:20:04.340Z,37.75
2022-12-13T20:22:32.243Z,37.33
2022-12-13T20:25:00.615Z,36.78
2022-12-13T20:27:27.703Z,39.63
2022-12-13T20:29:54.459Z,40.00
2022-12-13T20:32:21.369Z,40.88
2022-12-13T20:34:53.070Z,34.65
2022-12-13T20:37:23.633Z,37.08
2022-12-13T20:39:50.365Z,37.10
2022-12-13T20:42:17.099Z,51.78
2022-12-13T20:44:43.811Z,42.83
2022-12-13T20:47:10.679Z,44.58
2022-12-13T20:49:37.432Z,36.35
2022-12-13T20:52:04.367Z,39.50
2022-12-13T20:54:31.385Z,35.90
2022-12-13T20:56:58.170Z,38.30
2022-12-13T20:59:24.867Z,40.38
2022-12-13T21:01:51.722Z,35.45
2022-12-13T21:04:18.586Z,38.53
2022-12-13T21:06:45.325Z,39.40
2022-12-13T21:09:12.682Z,38.75
2022-12-13T21:11:40.745Z,38.15
2022-12-13T21:14:21.231Z,39.58
2022-12-13T21:16:53.758Z,41.28
2022-12-13T21:19:25.743Z,42.92
2022-12-13T21:21:53.598Z,53.50
2022-12-13T21:24:22.520Z,40.50
2022-12-13T21:26:51.041Z,45.65
2022-12-13T21:29:18.385Z,41.25
2022-12-13T21:31:49.214Z,41.05
2022-12-13T21:34:17.567Z,47.38
2022-12-13T21:36:46.407Z,43.20
2022-12-13T21:39:27.715Z,53.92
2022-12-13T21:41:54.635Z,41.10
2022-12-13T21:44:21.783Z,47.53
2022-12-13T21:49:35.896Z,46.25
2022-12-13T21:54:29.184Z,38.65
2022-12-13T21:57:14.557Z,50.10
2022-12-13T21:59:41.320Z,42.05
2022-12-13T22:02:20.140Z,46.80
2022-12-13T22:04:54.983Z,50.47
2022-12-13T22:07:27.108Z,44.08
2022-12-13T22:09:54.844Z,46.92
2022-12-13T22:12:24.448Z,42.95
2022-12-13T22:14:52.223Z,42.03
2022-12-13T22:17:24.881Z,41.90
2022-12-13T22:19:54.713Z,45.17
2022-12-13T22:22:23.448Z,43.95
2022-12-13T22:24:53.648Z,47.85
2022-12-13T22:27:25.603Z,50.45
2022-12-13T22:29:54.358Z,42.42
2022-12-13T22:32:22.838Z,47.22
2022-12-13T22:34:49.640Z,48.33
2022-12-13T22:37:16.465Z,46.90
2022-12-13T22:39:43.229Z,46.78
2022-12-13T22:42:09.983Z,44.45
2022-12-13T22:44:36.699Z,53.85
2022-12-13T22:47:03.491Z,40.92
2022-12-13T22:49:30.213Z,47.85
2022-12-13T22:51:57.368Z,43.90
2022-12-13T22:54:24.106Z,47.55
2022-12-13T22:56:51.713Z,44.63
2022-12-13T22:59:18.854Z,43.33
2022-12-13T23:01:47.517Z,47.42
2022-12-13T23:04:15.176Z,42.78
2022-12-13T23:06:42.127Z,45.25
2022-12-13T23:09:12.406Z,48.20
2022-12-13T23:11:58.631Z,51.15
2022-12-13T23:14:28.778Z,45.60
2022-12-13T23:16:55.955Z,54.15
2022-12-13T23:22:09.494Z,57.27
2022-12-13T23:27:03.554Z,54.70
2022-12-13T23:29:30.556Z,52.30
2022-12-13T23:31:57.262Z,64.95
2022-12-13T23:34:24.178Z,66.63
2022-12-13T23:36:50.907Z,58.92
2022-12-13T23:39:17.716Z,52.03
2022-12-13T23:41:44.477Z,58.45
2022-12-13T23:44:11.393Z,50.95
2022-12-13T23:46:38.183Z,60.92
2022-12-13T23:49:06.210Z,63.55
2022-12-13T23:51:34.031Z,63.08
2022-12-13T23:54:00.769Z,69.70
2022-12-13T23:56:27.629Z,60.75
2022-12-13T23:58:54.399Z,66.38
